Aérodrome :
LOGIN :

S'inscrire | Disclaimer

   EN    FR    IT 

 










Légende :    VFR   VFR Marginal   IFR   IFR Intensif   IFR Très Intensif
Visi : 
Plafond : 
>= 8 km
>= 3000ft
5 à 8 km
1000 à 3000 ft
1500m à 5 km
500 à 1000 ft
800 à 1500m
200 à 500 ft
< 800m
< 200 ft
Symboles :   Orages  Brouillard  Fortes neiges  Fortes précipitations  Vent > 20 kt
SIGMETs :   Divers  Orages  Givrage  Turbulence  Onde Orograph.  Cendres Volcan.







- Altitude de l'aérodrome : 16 ft
- Code IATA : AAE


DABB - Annaba-Rabah Bitat

DERNIER METAR :
  • 230430Z 22004KT CAVOK 09/07 Q1016

METARs EXPIRÉS :
  • 230400Z 22006KT CAVOK 10/08 Q1016
  • 230330Z 23005KT CAVOK 10/08 Q1016
  • 230300Z 22005KT CAVOK 10/08 Q1016
  • 230230Z 25003KT CAVOK 10/08 Q1016
  • 230200Z 22007KT CAVOK 10/08 Q1016

TAF TAF DABB
Valide du 23 à 00h jusqu'au 24 à 00h UTC


222300Z 2300/2324 21009KT 9999 FEW026 BKN200
PROB30
TEMPO 2301/2307 3000 BR BKN010
BECMG 2308/2310 27011KT
Pas de NOTAMs connus pour ce terrain.
1 SIGMET publié pour la FIR Alger (DAAA) :
 
Turbulence forte
DAAA SIGMET 1 VALID 230245/230545 DAMM
DAAA ALGIERS FIR SEV TURB FCST WI N3535 E00646 - N3542 E00816 - N3313 E00758 - N3313 E00612 - N3535 E00646 TOP FL370/240 MOV E=



MET'MAP, la Météo Aéronautique d'un coup d'oeil ! - Copyright ORBIFLY Décembre 2007 - Disclaimer

ORBIFLY MET'MAP TEAM :

Programmation & Développement : Alexandra Zaïnal
Conception & Développement : Baudouin d'Aumeries
Co-Programmation & Développement : Marc-Olivier Méhu
Soutien technique & logistique : Manuel Goepfert

Contact : metmap@orbifly.com




SOURCES & CREDITS :

   NOAA